Time;durP1;ratioP1;P1;durP2;ratioP2;P2;SDS_P1;SDS_P2;PMS_P1;PMS_P2;Temp;Humidity;BMP_temperature;BMP_pressure;BME280_temperature;BME280_humidity;BME280_pressure;Samples;Min_cycle;Max_cycle;Signal;HPM_P1;HPM_P2
2021/08/28 00:00:34;;;;;;;;;2.25;1.50;;;;;;;;5063048;28;47308;-76
2021/08/28 00:02:59;;;;;;;;;1.75;1.00;;;;;;;;5080713;28;46975;-76
2021/08/28 00:05:25;;;;;;;;;2.00;1.00;;;;;;;;5081184;28;46965;-76
2021/08/28 00:07:50;;;;;;;;;1.25;0.75;;;;;;;;5081055;28;46900;-77
2021/08/28 00:10:15;;;;;;;;;3.25;1.00;;;;;;;;5081143;28;46985;-77
2021/08/28 00:12:41;;;;;;;;;2.00;1.00;;;;;;;;5080924;28;47837;-76
2021/08/28 00:15:07;;;;;;;;;1.25;1.00;;;;;;;;5062471;28;46849;-76
2021/08/28 00:17:34;;;;;;;;;2.00;1.25;;;;;;;;5080463;28;46927;-76
2021/08/28 00:20:04;;;;;;;;;2.50;1.75;;;;;;;;5081049;28;47067;-76
2021/08/28 00:22:29;;;;;;;;;2.25;1.00;;;;;;;;5080579;28;47850;-76
2021/08/28 00:24:56;;;;;;;;;3.25;2.25;;;;;;;;5062620;28;47004;-76
2021/08/28 00:27:21;;;;;;;;;0.00;0.00;;;;;;;;5080618;28;46900;-76
2021/08/28 00:29:46;;;;;;;;;1.00;0.50;;;;;;;;5062532;28;47373;-76
2021/08/28 00:32:12;;;;;;;;;6.00;2.75;;;;;;;;5080148;28;47146;-77
2021/08/28 00:34:37;;;;;;;;;2.00;2.00;;;;;;;;5080500;28;47010;-76
2021/08/28 00:37:02;;;;;;;;;1.00;1.00;;;;;;;;5080436;28;46942;-77
2021/08/28 00:39:28;;;;;;;;;2.00;2.00;;;;;;;;5080773;28;47215;-76
2021/08/28 00:41:53;;;;;;;;;1.25;1.00;;;;;;;;5080360;28;47554;-76
2021/08/28 00:44:18;;;;;;;;;4.25;2.25;;;;;;;;5080424;28;47026;-76
2021/08/28 00:46:44;;;;;;;;;3.00;1.00;;;;;;;;5080060;28;47197;-77
2021/08/28 00:49:09;;;;;;;;;1.50;1.00;;;;;;;;5080578;28;46745;-77
2021/08/28 00:51:35;;;;;;;;;2.75;1.75;;;;;;;;5080117;28;47999;-77
2021/08/28 00:54:01;;;;;;;;;4.00;1.00;;;;;;;;5080388;28;47024;-77
2021/08/28 00:56:26;;;;;;;;;1.50;1.00;;;;;;;;5061772;28;47004;-77
2021/08/28 00:58:51;;;;;;;;;1.25;1.25;;;;;;;;5061988;28;47082;-76
2021/08/28 01:01:22;;;;;;;;;2.25;1.00;;;;;;;;5061589;28;48480;-77
2021/08/28 01:03:52;;;;;;;;;2.75;1.00;;;;;;;;5079777;28;46774;-77
2021/08/28 01:06:33;;;;;;;;;2.25;2.00;;;;;;;;5061736;28;46786;-77
2021/08/28 01:09:08;;;;;;;;;3.00;2.00;;;;;;;;5080384;28;46723;-76
2021/08/28 01:11:40;;;;;;;;;2.00;2.00;;;;;;;;5061718;28;47429;-76
2021/08/28 01:14:13;;;;;;;;;2.75;1.50;;;;;;;;5061282;28;47356;-76
2021/08/28 01:16:41;;;;;;;;;1.25;1.25;;;;;;;;5079527;28;46958;-76
2021/08/28 01:19:09;;;;;;;;;1.00;1.00;;;;;;;;5080052;28;46889;-76
2021/08/28 01:21:36;;;;;;;;;2.25;2.00;;;;;;;;5061332;28;47084;-76
2021/08/28 01:24:03;;;;;;;;;2.00;2.00;;;;;;;;5079774;28;47181;-76
2021/08/28 01:26:41;;;;;;;;;1.75;1.50;;;;;;;;5061097;28;47193;-76
2021/08/28 01:29:21;;;;;;;;;3.50;2.00;;;;;;;;5079650;28;46993;-76
2021/08/28 01:31:49;;;;;;;;;3.25;3.00;;;;;;;;5060936;28;48552;-76
2021/08/28 01:34:15;;;;;;;;;1.00;1.00;;;;;;;;5079593;27;48237;-76
2021/08/28 01:36:41;;;;;;;;;3.50;2.50;;;;;;;;5079495;28;47110;-76
2021/08/28 01:39:07;;;;;;;;;2.00;2.00;;;;;;;;5080023;28;46839;-76
2021/08/28 01:41:33;;;;;;;;;2.25;2.25;;;;;;;;5079426;28;46970;-76
2021/08/28 01:44:00;;;;;;;;;4.50;1.75;;;;;;;;5079556;28;46908;-76
2021/08/28 01:46:25;;;;;;;;;3.00;1.25;;;;;;;;5079380;28;46802;-76
2021/08/28 01:48:50;;;;;;;;;5.50;1.00;;;;;;;;5061032;28;46809;-76
2021/08/28 01:51:16;;;;;;;;;2.00;1.50;;;;;;;;5079155;28;46925;-76
2021/08/28 01:53:42;;;;;;;;;2.25;1.00;;;;;;;;5079426;28;46897;-76
2021/08/28 01:56:10;;;;;;;;;4.25;3.00;;;;;;;;5060804;28;47055;-76
2021/08/28 01:58:36;;;;;;;;;3.50;2.00;;;;;;;;5079334;28;47014;-76
2021/08/28 02:01:01;;;;;;;;;3.25;1.75;;;;;;;;5078881;28;47112;-76
2021/08/28 02:03:26;;;;;;;;;1.50;1.50;;;;;;;;5078854;28;46998;-76
2021/08/28 02:05:57;;;;;;;;;1.00;1.00;;;;;;;;5079224;28;46960;-76
2021/08/28 02:08:28;;;;;;;;;2.25;1.75;;;;;;;;5079452;28;46840;-76
2021/08/28 02:11:03;;;;;;;;;2.00;2.00;;;;;;;;5060547;28;49798;-76
2021/08/28 02:13:31;;;;;;;;;1.75;1.75;;;;;;;;5078768;28;46795;-76
2021/08/28 02:16:02;;;;;;;;;2.00;2.00;;;;;;;;5077927;28;46739;-76
2021/08/28 02:18:32;;;;;;;;;3.00;1.00;;;;;;;;5060232;28;46966;-76
2021/08/28 02:20:58;;;;;;;;;1.50;1.00;;;;;;;;5078569;28;47899;-76
2021/08/28 02:23:30;;;;;;;;;3.00;2.00;;;;;;;;5078667;28;47084;-76
2021/08/28 02:26:01;;;;;;;;;4.50;1.25;;;;;;;;5072877;28;46792;-76
2021/08/28 02:28:32;;;;;;;;;5.25;1.00;;;;;;;;5072511;28;46990;-76
2021/08/28 02:30:59;;;;;;;;;6.50;1.50;;;;;;;;5078775;28;46978;-76
2021/08/28 02:33:25;;;;;;;;;2.00;2.00;;;;;;;;5078189;28;46913;-77
2021/08/28 02:35:50;;;;;;;;;3.00;1.25;;;;;;;;5078722;28;47227;-76
2021/08/28 02:38:16;;;;;;;;;2.75;2.75;;;;;;;;5078723;28;46935;-76
2021/08/28 02:40:42;;;;;;;;;2.50;2.50;;;;;;;;5078751;28;48048;-76
2021/08/28 02:43:08;;;;;;;;;2.00;1.25;;;;;;;;5078374;28;46982;-76
2021/08/28 02:45:34;;;;;;;;;2.50;1.25;;;;;;;;5078665;28;46883;-76
2021/08/28 02:48:01;;;;;;;;;2.00;1.00;;;;;;;;5078300;28;46838;-76
2021/08/28 02:50:26;;;;;;;;;5.00;2.25;;;;;;;;5078499;28;46878;-76
2021/08/28 02:52:53;;;;;;;;;3.75;2.00;;;;;;;;5059975;28;46870;-76
2021/08/28 02:55:19;;;;;;;;;3.50;3.00;;;;;;;;5078560;28;47057;-76
2021/08/28 02:57:45;;;;;;;;;4.25;2.25;;;;;;;;5078288;28;47276;-76
2021/08/28 03:00:11;;;;;;;;;3.00;2.00;;;;;;;;5078435;28;47010;-76
2021/08/28 03:02:37;;;;;;;;;3.00;1.25;;;;;;;;5077865;28;46958;-76
2021/08/28 03:05:04;;;;;;;;;3.00;2.00;;;;;;;;5078440;28;46995;-76
2021/08/28 03:07:29;;;;;;;;;5.50;1.50;;;;;;;;5078590;28;47184;-76
2021/08/28 03:09:55;;;;;;;;;2.50;1.25;;;;;;;;5078228;28;46842;-76
2021/08/28 03:12:20;;;;;;;;;3.75;2.75;;;;;;;;5077977;28;46737;-76
2021/08/28 03:14:46;;;;;;;;;2.00;1.00;;;;;;;;5059823;28;47003;-76
2021/08/28 03:17:13;;;;;;;;;1.75;1.50;;;;;;;;5077726;28;47143;-76
2021/08/28 03:19:40;;;;;;;;;2.00;1.00;;;;;;;;5059653;28;48589;-76
2021/08/28 03:22:05;;;;;;;;;6.25;1.75;;;;;;;;5077906;28;47096;-76
2021/08/28 03:24:31;;;;;;;;;1.50;1.50;;;;;;;;5078128;28;47044;-76
2021/08/28 03:26:57;;;;;;;;;4.75;3.00;;;;;;;;5065367;28;47042;-76
2021/08/28 03:29:23;;;;;;;;;3.75;1.50;;;;;;;;5081496;28;46971;-76
2021/08/28 03:31:52;;;;;;;;;5.25;2.25;;;;;;;;5081277;28;47441;-76
2021/08/28 03:34:18;;;;;;;;;3.50;2.00;;;;;;;;5081457;28;46863;-76
2021/08/28 03:36:44;;;;;;;;;2.00;2.00;;;;;;;;5081680;28;47066;-76
2021/08/28 03:39:09;;;;;;;;;5.25;2.00;;;;;;;;5081370;28;47262;-76
2021/08/28 03:41:36;;;;;;;;;3.00;2.00;;;;;;;;5081242;28;47007;-76
2021/08/28 03:44:01;;;;;;;;;1.75;1.75;;;;;;;;5081381;28;47111;-76
2021/08/28 03:46:29;;;;;;;;;4.25;2.50;;;;;;;;5062795;28;47043;-76
2021/08/28 03:48:55;;;;;;;;;3.50;2.75;;;;;;;;5081151;28;46812;-76
2021/08/28 03:51:20;;;;;;;;;1.50;1.00;;;;;;;;5062668;28;46839;-76
2021/08/28 03:53:45;;;;;;;;;4.50;2.00;;;;;;;;5081412;28;46893;-76
2021/08/28 03:56:11;;;;;;;;;3.00;1.75;;;;;;;;5081169;28;46809;-76
2021/08/28 03:58:36;;;;;;;;;4.25;2.00;;;;;;;;5081008;28;47160;-76
2021/08/28 04:01:01;;;;;;;;;3.25;1.75;;;;;;;;5081002;28;46856;-76
2021/08/28 04:03:27;;;;;;;;;5.00;3.00;;;;;;;;5081089;28;46982;-76
2021/08/28 04:05:52;;;;;;;;;3.75;2.00;;;;;;;;5081110;28;46745;-76
2021/08/28 04:08:17;;;;;;;;;1.00;1.00;;;;;;;;5062654;28;49804;-76
2021/08/28 04:10:43;;;;;;;;;4.00;2.00;;;;;;;;5062643;28;47689;-76
2021/08/28 04:13:08;;;;;;;;;2.00;1.00;;;;;;;;5081105;28;47166;-76
2021/08/28 04:15:34;;;;;;;;;1.75;1.00;;;;;;;;5062565;28;47047;-76
2021/08/28 04:17:59;;;;;;;;;3.00;3.00;;;;;;;;5080359;28;47819;-76
2021/08/28 04:20:24;;;;;;;;;3.00;2.50;;;;;;;;5080575;28;47045;-76
2021/08/28 04:22:50;;;;;;;;;5.50;2.00;;;;;;;;5080820;28;47063;-76
2021/08/28 04:25:15;;;;;;;;;3.00;1.75;;;;;;;;5080340;28;46892;-76
2021/08/28 04:27:40;;;;;;;;;3.25;1.00;;;;;;;;5068459;28;48062;-76
2021/08/28 04:30:06;;;;;;;;;3.75;2.25;;;;;;;;5062309;28;47069;-76
2021/08/28 04:32:32;;;;;;;;;4.75;2.00;;;;;;;;5080431;28;47018;-76
2021/08/28 04:34:57;;;;;;;;;3.25;2.75;;;;;;;;5080556;28;47051;-76
2021/08/28 04:37:23;;;;;;;;;1.25;1.25;;;;;;;;5080482;28;48021;-76
2021/08/28 04:39:48;;;;;;;;;2.00;2.00;;;;;;;;5079929;28;46867;-76
2021/08/28 04:42:13;;;;;;;;;3.25;2.00;;;;;;;;5080472;28;46886;-76
2021/08/28 04:44:39;;;;;;;;;4.75;1.25;;;;;;;;5062244;28;47065;-76
2021/08/28 04:47:04;;;;;;;;;3.00;2.75;;;;;;;;5080176;28;47629;-76
2021/08/28 04:49:29;;;;;;;;;3.50;1.00;;;;;;;;5080093;28;46834;-76
2021/08/28 04:51:55;;;;;;;;;4.00;1.75;;;;;;;;5080488;28;46786;-76
2021/08/28 04:54:21;;;;;;;;;3.00;1.50;;;;;;;;5080356;28;47566;-76
2021/08/28 04:56:46;;;;;;;;;2.50;2.00;;;;;;;;5061768;28;48595;-76
2021/08/28 04:59:12;;;;;;;;;1.75;1.75;;;;;;;;5080011;28;46798;-76
2021/08/28 05:01:37;;;;;;;;;3.50;3.00;;;;;;;;5079943;28;46792;-76
2021/08/28 05:04:02;;;;;;;;;4.00;3.75;;;;;;;;5080312;28;47159;-76
2021/08/28 05:06:28;;;;;;;;;2.25;1.00;;;;;;;;5079992;28;48149;-76
2021/08/28 05:08:53;;;;;;;;;3.00;2.00;;;;;;;;5061720;28;46995;-76
2021/08/28 05:11:18;;;;;;;;;3.75;1.50;;;;;;;;5061733;28;47024;-76
2021/08/28 05:13:45;;;;;;;;;5.00;3.50;;;;;;;;5080164;28;46916;-76
2021/08/28 05:16:10;;;;;;;;;4.50;2.00;;;;;;;;5061128;28;48434;-76
2021/08/28 05:18:35;;;;;;;;;2.00;2.00;;;;;;;;5079575;28;47007;-76
2021/08/28 05:21:01;;;;;;;;;5.50;2.00;;;;;;;;5079613;28;46874;-76
2021/08/28 05:23:26;;;;;;;;;5.00;3.00;;;;;;;;5080117;28;46962;-76
2021/08/28 05:25:52;;;;;;;;;4.50;2.00;;;;;;;;5073966;28;47268;-76
2021/08/28 05:28:17;;;;;;;;;7.75;2.00;;;;;;;;5071628;28;46988;-76
2021/08/28 05:30:42;;;;;;;;;6.75;4.50;;;;;;;;5079632;28;46793;-76
2021/08/28 05:33:08;;;;;;;;;2.75;2.75;;;;;;;;5061317;28;47055;-76
2021/08/28 05:35:33;;;;;;;;;6.50;3.50;;;;;;;;5079353;28;47913;-76
2021/08/28 05:37:59;;;;;;;;;5.25;3.00;;;;;;;;5079464;28;46954;-76
2021/08/28 05:40:24;;;;;;;;;4.00;4.00;;;;;;;;5060976;28;46731;-76
2021/08/28 05:42:49;;;;;;;;;4.25;4.25;;;;;;;;5079721;28;46733;-76
2021/08/28 05:45:14;;;;;;;;;6.50;3.00;;;;;;;;5079105;28;47764;-76
2021/08/28 05:47:40;;;;;;;;;6.50;3.00;;;;;;;;5079075;28;46905;-76
2021/08/28 05:50:05;;;;;;;;;4.50;4.00;;;;;;;;5079025;28;46923;-76
2021/08/28 05:52:31;;;;;;;;;4.50;4.00;;;;;;;;5078604;28;47017;-76
2021/08/28 05:54:56;;;;;;;;;10.25;5.00;;;;;;;;5079165;28;48076;-76
2021/08/28 05:57:21;;;;;;;;;4.75;4.25;;;;;;;;5079092;28;46859;-76
2021/08/28 05:59:47;;;;;;;;;5.75;3.00;;;;;;;;5079140;28;47159;-76
2021/08/28 06:02:12;;;;;;;;;3.00;2.00;;;;;;;;5079208;28;46972;-76
2021/08/28 06:04:38;;;;;;;;;4.25;3.00;;;;;;;;5060689;28;47078;-76
2021/08/28 06:07:03;;;;;;;;;3.00;2.25;;;;;;;;5079247;28;47018;-76
2021/08/28 06:09:28;;;;;;;;;3.25;3.00;;;;;;;;5079148;28;47021;-76
2021/08/28 06:11:55;;;;;;;;;6.00;4.00;;;;;;;;5079272;28;46946;-76
2021/08/28 06:14:20;;;;;;;;;3.00;2.00;;;;;;;;5078713;28;46992;-76
2021/08/28 06:16:45;;;;;;;;;2.00;2.00;;;;;;;;5078254;28;46880;-76
2021/08/28 06:19:11;;;;;;;;;5.25;3.75;;;;;;;;5078664;28;47023;-76
2021/08/28 06:21:36;;;;;;;;;2.00;2.00;;;;;;;;5079123;28;46975;-76
2021/08/28 06:24:02;;;;;;;;;4.25;2.00;;;;;;;;5078612;28;47955;-76
2021/08/28 06:26:27;;;;;;;;;2.75;2.50;;;;;;;;5049932;28;47736;-76
2021/08/28 06:28:52;;;;;;;;;4.00;3.00;;;;;;;;5075901;28;46916;-76
2021/08/28 06:31:18;;;;;;;;;3.00;2.75;;;;;;;;5060622;28;47043;-76
2021/08/28 06:33:43;;;;;;;;;4.00;3.00;;;;;;;;5060159;28;47829;-76
2021/08/28 06:36:08;;;;;;;;;5.25;2.00;;;;;;;;5078687;28;46840;-76
2021/08/28 06:38:33;;;;;;;;;3.75;2.00;;;;;;;;5078660;28;46927;-76
2021/08/28 06:40:59;;;;;;;;;5.00;3.00;;;;;;;;5079012;28;46880;-76
2021/08/28 06:43:25;;;;;;;;;4.25;1.50;;;;;;;;5078317;28;48060;-77
2021/08/28 06:45:51;;;;;;;;;4.00;2.00;;;;;;;;5078578;28;46875;-76
2021/08/28 06:48:16;;;;;;;;;6.75;2.00;;;;;;;;5078173;28;46902;-76
2021/08/28 06:50:41;;;;;;;;;4.75;3.25;;;;;;;;5078660;28;46777;-76
2021/08/28 06:53:07;;;;;;;;;2.25;2.25;;;;;;;;5078204;28;47070;-76
2021/08/28 06:55:32;;;;;;;;;6.75;3.50;;;;;;;;5078494;28;46901;-76
2021/08/28 06:57:57;;;;;;;;;4.75;4.00;;;;;;;;5059752;28;47056;-76
2021/08/28 07:00:23;;;;;;;;;4.00;3.00;;;;;;;;5078865;28;47011;-76
2021/08/28 07:02:48;;;;;;;;;6.25;3.00;;;;;;;;5077472;28;47262;-76
2021/08/28 07:05:13;;;;;;;;;6.00;2.50;;;;;;;;5078368;28;46801;-76
2021/08/28 07:07:39;;;;;;;;;4.25;3.00;;;;;;;;5078155;28;47590;-76
2021/08/28 07:10:04;;;;;;;;;6.00;5.00;;;;;;;;5078499;28;46890;-76
2021/08/28 07:12:30;;;;;;;;;3.75;2.75;;;;;;;;5078015;28;47010;-76
2021/08/28 07:14:56;;;;;;;;;3.50;3.00;;;;;;;;5078363;28;47149;-76
2021/08/28 07:17:21;;;;;;;;;5.50;4.50;;;;;;;;5077686;28;46965;-76
2021/08/28 07:19:47;;;;;;;;;4.25;3.00;;;;;;;;5078343;28;46938;-76
2021/08/28 07:22:12;;;;;;;;;6.50;4.00;;;;;;;;5077891;28;47135;-76
2021/08/28 07:24:37;;;;;;;;;4.00;3.75;;;;;;;;5077985;28;46943;-76
2021/08/28 07:27:03;;;;;;;;;8.00;4.50;;;;;;;;5064642;28;48116;-76
2021/08/28 07:29:29;;;;;;;;;7.00;4.00;;;;;;;;5078195;28;46804;-76
2021/08/28 07:31:54;;;;;;;;;3.00;3.00;;;;;;;;5077656;28;47353;-76
2021/08/28 07:34:19;;;;;;;;;6.00;4.25;;;;;;;;5077843;28;46928;-76
2021/08/28 07:36:45;;;;;;;;;8.25;6.00;;;;;;;;5077867;28;46821;-76
2021/08/28 07:39:10;;;;;;;;;8.25;5.00;;;;;;;;5078136;28;46959;-76
2021/08/28 07:41:35;;;;;;;;;6.75;6.00;;;;;;;;5077662;28;46974;-76
2021/08/28 07:44:01;;;;;;;;;6.00;5.00;;;;;;;;5059496;28;46996;-76
2021/08/28 07:46:26;;;;;;;;;8.75;6.75;;;;;;;;5077560;28;46857;-76
2021/08/28 07:48:51;;;;;;;;;9.50;7.50;;;;;;;;5078209;28;46894;-76
2021/08/28 07:51:17;;;;;;;;;5.75;4.25;;;;;;;;5059230;28;48103;-76
2021/08/28 07:53:42;;;;;;;;;7.75;6.00;;;;;;;;5077970;28;46874;-76
2021/08/28 07:56:07;;;;;;;;;6.25;6.25;;;;;;;;5077561;28;46845;-76
2021/08/28 07:58:32;;;;;;;;;8.75;4.50;;;;;;;;5059645;28;46740;-76
2021/08/28 08:00:58;;;;;;;;;6.25;5.00;;;;;;;;5077492;28;47197;-76
2021/08/28 08:03:23;;;;;;;;;5.25;5.00;;;;;;;;5077437;28;47004;-76
2021/08/28 08:05:48;;;;;;;;;6.00;4.25;;;;;;;;5077532;28;47338;-76
2021/08/28 08:08:14;;;;;;;;;9.50;5.75;;;;;;;;5077879;28;47007;-76
2021/08/28 08:10:39;;;;;;;;;6.50;5.25;;;;;;;;5077289;28;47493;-76
2021/08/28 08:13:04;;;;;;;;;6.75;3.75;;;;;;;;5077547;28;47105;-76
2021/08/28 08:15:31;;;;;;;;;7.00;5.25;;;;;;;;5080064;28;46952;-76
2021/08/28 08:17:57;;;;;;;;;5.00;4.00;;;;;;;;5058971;28;47147;-76
2021/08/28 08:20:24;;;;;;;;;8.25;4.50;;;;;;;;5060402;28;47318;-76
2021/08/28 08:22:49;;;;;;;;;5.75;4.50;;;;;;;;5060845;28;47154;-76
2021/08/28 08:25:14;;;;;;;;;4.25;4.25;;;;;;;;5060004;28;46755;-76
2021/08/28 08:27:40;;;;;;;;;6.25;4.00;;;;;;;;5048366;28;46817;-76
2021/08/28 08:30:06;;;;;;;;;4.75;3.00;;;;;;;;5060199;28;47810;-76
2021/08/28 08:32:31;;;;;;;;;3.75;3.75;;;;;;;;5060224;28;46748;-76
2021/08/28 08:34:56;;;;;;;;;2.75;2.00;;;;;;;;5060270;28;46932;-76
2021/08/28 08:37:22;;;;;;;;;4.00;2.25;;;;;;;;5060686;28;47023;-76
2021/08/28 08:39:47;;;;;;;;;7.00;3.50;;;;;;;;5058867;28;48561;-76
2021/08/28 08:42:13;;;;;;;;;3.25;3.00;;;;;;;;5060413;28;46997;-76
2021/08/28 08:44:40;;;;;;;;;5.50;3.75;;;;;;;;5060404;28;47039;-76
2021/08/28 08:47:07;;;;;;;;;4.50;3.75;;;;;;;;5058596;28;47081;-76
2021/08/28 08:49:32;;;;;;;;;5.75;3.00;;;;;;;;5059881;28;47720;-76
2021/08/28 08:51:58;;;;;;;;;4.25;3.75;;;;;;;;5060186;28;46974;-76
2021/08/28 08:54:24;;;;;;;;;6.00;3.00;;;;;;;;5059992;28;46828;-76
2021/08/28 08:56:49;;;;;;;;;5.50;3.50;;;;;;;;5060249;28;46758;-76
2021/08/28 08:59:15;;;;;;;;;4.00;2.50;;;;;;;;5059695;28;47456;-76
2021/08/28 09:01:40;;;;;;;;;2.00;2.00;;;;;;;;5059718;28;46998;-76
2021/08/28 09:04:05;;;;;;;;;5.00;3.00;;;;;;;;5059855;28;47014;-77
2021/08/28 09:06:30;;;;;;;;;2.25;2.25;;;;;;;;5060337;28;46780;-76
2021/08/28 09:08:56;;;;;;;;;2.00;2.00;;;;;;;;5058297;27;49285;-76
2021/08/28 09:11:23;;;;;;;;;2.75;2.75;;;;;;;;5059998;28;46854;-76
2021/08/28 09:13:48;;;;;;;;;4.00;3.00;;;;;;;;5059832;28;47042;-76
2021/08/28 09:16:27;;;;;;;;;3.50;2.50;;;;;;;;5060046;28;47107;-76
2021/08/28 09:18:52;;;;;;;;;3.00;3.00;;;;;;;;5079960;28;46908;-76
2021/08/28 09:21:21;;;;;;;;;4.50;3.25;;;;;;;;5079871;28;47063;-76
2021/08/28 09:23:46;;;;;;;;;4.75;3.75;;;;;;;;5061663;28;46872;-76
2021/08/28 09:26:44;;;;;;;;;6.25;5.00;;;;;;;;5071461;28;46719;-76
2021/08/28 09:29:12;;;;;;;;;5.75;4.50;;;;;;;;5055597;28;47283;-76
2021/08/28 09:31:41;;;;;;;;;3.75;3.00;;;;;;;;5079579;28;46988;-76
2021/08/28 09:34:14;;;;;;;;;4.25;3.50;;;;;;;;5079701;28;46813;-76
2021/08/28 09:36:39;;;;;;;;;5.00;3.00;;;;;;;;5079875;28;47144;-76
2021/08/28 09:39:04;;;;;;;;;3.00;3.00;;;;;;;;5061414;28;48957;-76
2021/08/28 09:41:31;;;;;;;;;3.50;3.50;;;;;;;;5079494;28;46829;-76
2021/08/28 09:44:07;;;;;;;;;3.00;3.00;;;;;;;;5079739;28;46823;-76
2021/08/28 09:46:32;;;;;;;;;3.50;3.00;;;;;;;;5079371;28;47210;-76
2021/08/28 09:49:01;;;;;;;;;5.50;4.00;;;;;;;;5060984;28;46928;-76
2021/08/28 09:51:33;;;;;;;;;3.25;3.25;;;;;;;;5079327;28;47108;-76
2021/08/28 09:53:59;;;;;;;;;2.50;2.25;;;;;;;;5079731;28;46994;-76
2021/08/28 09:56:26;;;;;;;;;3.00;3.00;;;;;;;;5079515;28;46833;-76
2021/08/28 09:58:51;;;;;;;;;5.25;4.00;;;;;;;;5079378;28;46974;-76
2021/08/28 10:01:20;;;;;;;;;5.25;4.00;;;;;;;;5079026;28;47987;-76
2021/08/28 10:03:56;;;;;;;;;6.00;5.00;;;;;;;;5079466;28;46776;-76
2021/08/28 10:06:21;;;;;;;;;4.00;4.00;;;;;;;;5079489;28;46869;-76
2021/08/28 10:08:47;;;;;;;;;6.50;4.00;;;;;;;;5060920;28;49245;-76
2021/08/28 10:11:12;;;;;;;;;6.00;4.00;;;;;;;;5079189;28;46837;-76
2021/08/28 10:13:38;;;;;;;;;5.25;3.75;;;;;;;;5079336;28;47062;-76
2021/08/28 10:16:04;;;;;;;;;3.00;2.75;;;;;;;;5078827;28;46941;-76
2021/08/28 10:18:30;;;;;;;;;3.00;3.00;;;;;;;;5078697;28;48090;-76
2021/08/28 10:20:58;;;;;;;;;5.50;4.25;;;;;;;;5078797;28;47076;-76
2021/08/28 10:23:25;;;;;;;;;4.00;3.00;;;;;;;;5078953;28;46915;-76
2021/08/28 10:25:51;;;;;;;;;3.00;2.75;;;;;;;;5073290;28;46769;-76
2021/08/28 10:28:18;;;;;;;;;3.50;2.75;;;;;;;;5071623;28;46885;-77
2021/08/28 10:30:45;;;;;;;;;3.00;3.00;;;;;;;;5078787;28;47015;-76
2021/08/28 10:33:10;;;;;;;;;4.00;2.25;;;;;;;;5078478;28;46988;-76
2021/08/28 10:35:36;;;;;;;;;4.25;3.00;;;;;;;;5078840;28;47241;-76
2021/08/28 10:38:02;;;;;;;;;2.50;2.00;;;;;;;;5077845;28;47088;-76
2021/08/28 10:40:30;;;;;;;;;4.25;3.25;;;;;;;;5060323;28;46922;-76
2021/08/28 10:42:58;;;;;;;;;2.75;2.00;;;;;;;;5060287;28;46804;-76
2021/08/28 10:45:49;;;;;;;;;4.00;3.00;;;;;;;;5078991;28;46797;-76
2021/08/28 10:48:15;;;;;;;;;3.50;1.50;;;;;;;;5074165;27;46756;-76
2021/08/28 10:50:42;;;;;;;;;3.25;2.75;;;;;;;;5060467;28;47075;-76
2021/08/28 10:53:08;;;;;;;;;1.75;1.00;;;;;;;;5060198;28;46846;-76
2021/08/28 10:55:35;;;;;;;;;2.00;1.75;;;;;;;;5078981;28;46964;-77
2021/08/28 10:58:10;;;;;;;;;0.25;0.00;;;;;;;;5078236;28;48174;-76
2021/08/28 11:00:39;;;;;;;;;3.00;1.75;;;;;;;;5078547;28;46967;-76
2021/08/28 11:03:20;;;;;;;;;2.00;2.00;;;;;;;;5059773;28;46835;-76
2021/08/28 11:05:46;;;;;;;;;2.00;2.00;;;;;;;;5078689;28;46924;-76
2021/08/28 11:08:15;;;;;;;;;2.75;2.75;;;;;;;;5060093;28;48399;-76
2021/08/28 11:10:41;;;;;;;;;1.00;1.00;;;;;;;;5078336;28;46989;-76
2021/08/28 11:13:06;;;;;;;;;1.25;1.25;;;;;;;;5078260;28;46813;-76
2021/08/28 11:15:34;;;;;;;;;2.00;2.00;;;;;;;;5060165;28;46878;-76
2021/08/28 11:18:01;;;;;;;;;2.00;2.00;;;;;;;;5059340;28;48755;-76
2021/08/28 11:20:39;;;;;;;;;2.00;2.00;;;;;;;;5078034;28;46920;-76
2021/08/28 11:23:08;;;;;;;;;2.00;2.00;;;;;;;;5078357;28;46904;-76
2021/08/28 11:25:35;;;;;;;;;2.50;2.00;;;;;;;;5075049;28;47263;-76
2021/08/28 11:28:03;;;;;;;;;2.00;2.00;;;;;;;;5068742;28;48121;-76
2021/08/28 11:30:46;;;;;;;;;2.00;2.00;;;;;;;;5078083;28;47032;-76
2021/08/28 11:33:23;;;;;;;;;3.00;0.00;;;;;;;;5077681;28;47049;-76
2021/08/28 11:35:53;;;;;;;;;2.00;2.00;;;;;;;;5078437;28;47012;-76
2021/08/28 11:38:23;;;;;;;;;1.50;1.00;;;;;;;;5059523;28;48217;-77
2021/08/28 11:40:58;;;;;;;;;2.00;2.00;;;;;;;;5078184;28;46708;-77
2021/08/28 11:43:30;;;;;;;;;2.00;1.00;;;;;;;;5077906;28;47008;-77
2021/08/28 11:45:59;;;;;;;;;2.00;2.00;;;;;;;;5078151;28;46984;-76
2021/08/28 11:48:24;;;;;;;;;2.00;1.50;;;;;;;;5077784;28;47857;-76
2021/08/28 11:50:51;;;;;;;;;2.00;1.00;;;;;;;;5081110;28;46931;-76
2021/08/28 11:53:24;;;;;;;;;0.50;0.50;;;;;;;;5081373;28;46986;-76
2021/08/28 11:55:49;;;;;;;;;3.50;1.25;;;;;;;;5081694;28;46788;-76
2021/08/28 11:58:16;;;;;;;;;1.25;1.25;;;;;;;;5080921;28;48058;-76
2021/08/28 12:00:42;;;;;;;;;1.75;1.00;;;;;;;;5081363;28;46922;-77
2021/08/28 12:03:07;;;;;;;;;0.75;0.75;;;;;;;;5080966;28;47089;-76
2021/08/28 12:05:33;;;;;;;;;3.00;1.00;;;;;;;;5081489;28;47028;-76
2021/08/28 12:07:59;;;;;;;;;2.75;1.00;;;;;;;;5081035;28;47921;-77
2021/08/28 12:10:25;;;;;;;;;2.00;1.00;;;;;;;;5062826;28;47042;-76
2021/08/28 12:13:08;;;;;;;;;1.50;1.00;;;;;;;;5080922;28;47079;-76
2021/08/28 12:15:33;;;;;;;;;2.00;1.00;;;;;;;;5081335;28;47321;-76
2021/08/28 12:17:59;;;;;;;;;1.50;1.00;;;;;;;;5080665;28;46977;-76
2021/08/28 12:20:26;;;;;;;;;1.25;1.00;;;;;;;;5080790;28;46950;-76
2021/08/28 12:22:52;;;;;;;;;2.00;1.00;;;;;;;;5081392;28;46924;-77
2021/08/28 12:25:18;;;;;;;;;2.00;2.00;;;;;;;;5080138;28;46965;-76
2021/08/28 12:27:45;;;;;;;;;1.00;1.00;;;;;;;;5050869;28;47106;-76
2021/08/28 12:30:10;;;;;;;;;2.00;1.00;;;;;;;;5080663;28;46936;-77
2021/08/28 12:32:36;;;;;;;;;1.00;1.00;;;;;;;;5080840;28;46754;-76
2021/08/28 12:35:01;;;;;;;;;1.75;1.00;;;;;;;;5080711;28;46891;-78
2021/08/28 12:37:27;;;;;;;;;2.00;2.00;;;;;;;;5080766;28;47803;-76
2021/08/28 12:39:59;;;;;;;;;1.00;1.00;;;;;;;;5080691;28;47380;-77
2021/08/28 12:42:24;;;;;;;;;3.00;2.00;;;;;;;;5080659;28;46939;-77
2021/08/28 12:44:51;;;;;;;;;2.25;2.00;;;;;;;;5080879;28;47268;-77
2021/08/28 12:47:18;;;;;;;;;2.25;1.00;;;;;;;;5080483;28;48155;-76
2021/08/28 12:49:43;;;;;;;;;2.50;1.00;;;;;;;;5080474;28;46777;-76
2021/08/28 12:52:10;;;;;;;;;0.25;0.25;;;;;;;;5080679;28;46868;-77
2021/08/28 12:54:36;;;;;;;;;2.50;1.00;;;;;;;;5080758;28;46868;-76
2021/08/28 12:57:04;;;;;;;;;1.00;1.00;;;;;;;;5080240;28;47895;-77
2021/08/28 12:59:30;;;;;;;;;2.00;2.00;;;;;;;;5080200;28;47046;-77
2021/08/28 13:01:56;;;;;;;;;1.75;1.75;;;;;;;;5079978;28;46797;-76
2021/08/28 13:04:27;;;;;;;;;1.00;1.00;;;;;;;;5062078;28;47078;-77
2021/08/28 13:07:12;;;;;;;;;4.00;3.00;;;;;;;;5080103;28;46964;-76
2021/08/28 13:09:47;;;;;;;;;1.75;1.75;;;;;;;;5061730;28;47305;-76
2021/08/28 13:12:13;;;;;;;;;1.00;1.00;;;;;;;;5080399;28;46992;-77
2021/08/28 13:14:48;;;;;;;;;1.00;1.00;;;;;;;;5080536;28;46956;-77
2021/08/28 13:17:13;;;;;;;;;0.75;0.75;;;;;;;;5079642;28;47789;-77
2021/08/28 13:19:39;;;;;;;;;2.00;2.00;;;;;;;;5080224;28;46786;-76
2021/08/28 13:22:04;;;;;;;;;1.75;1.75;;;;;;;;5080054;28;46863;-76
2021/08/28 13:24:29;;;;;;;;;1.00;1.00;;;;;;;;5061953;28;46797;-76
2021/08/28 13:27:08;;;;;;;;;0.00;0.00;;;;;;;;5048689;28;47680;-77
2021/08/28 13:29:34;;;;;;;;;1.00;1.00;;;;;;;;5079877;28;47112;-76
2021/08/28 13:32:04;;;;;;;;;5.00;2.00;;;;;;;;5079626;28;46962;-76
2021/08/28 13:34:45;;;;;;;;;2.75;2.75;;;;;;;;5080019;28;47228;-76
2021/08/28 13:37:11;;;;;;;;;2.00;1.00;;;;;;;;5079646;28;47665;-76
2021/08/28 13:39:37;;;;;;;;;0.50;0.00;;;;;;;;5079760;28;47062;-77
2021/08/28 13:42:02;;;;;;;;;3.00;1.00;;;;;;;;5079697;28;47050;-77
2021/08/28 13:44:28;;;;;;;;;3.00;2.50;;;;;;;;5079960;28;47279;-78
2021/08/28 13:46:53;;;;;;;;;1.00;1.00;;;;;;;;5079268;28;47070;-77
2021/08/28 13:49:19;;;;;;;;;3.00;3.00;;;;;;;;5079709;28;46970;-76
2021/08/28 13:51:44;;;;;;;;;0.50;0.50;;;;;;;;5079504;28;46733;-76
2021/08/28 13:54:09;;;;;;;;;2.00;2.00;;;;;;;;5079846;28;47275;-77
2021/08/28 13:56:35;;;;;;;;;0.50;0.00;;;;;;;;5061058;28;48544;-78
2021/08/28 13:59:00;;;;;;;;;2.00;2.00;;;;;;;;5079519;28;46804;-76
2021/08/28 14:01:25;;;;;;;;;2.00;1.25;;;;;;;;5060874;28;47220;-77
2021/08/28 14:03:51;;;;;;;;;1.50;1.50;;;;;;;;5079666;28;47136;-76
2021/08/28 14:06:16;;;;;;;;;2.75;1.75;;;;;;;;5079318;28;47987;-76
2021/08/28 14:08:41;;;;;;;;;2.00;2.00;;;;;;;;5079362;28;46963;-77
2021/08/28 14:11:07;;;;;;;;;1.75;1.50;;;;;;;;5079166;28;46845;-77
2021/08/28 14:13:32;;;;;;;;;3.50;2.00;;;;;;;;5049580;28;46775;-77
2021/08/28 14:15:57;;;;;;;;;1.75;1.00;;;;;;;;5075974;28;47973;-76
2021/08/28 14:18:23;;;;;;;;;2.00;2.00;;;;;;;;5078975;28;46928;-78
2021/08/28 14:20:48;;;;;;;;;7.00;3.00;;;;;;;;5079020;28;46913;-77
2021/08/28 14:23:13;;;;;;;;;3.50;1.75;;;;;;;;5079481;28;47137;-77
2021/08/28 14:25:38;;;;;;;;;4.00;2.75;;;;;;;;5056985;28;48265;-77
2021/08/28 14:28:04;;;;;;;;;2.25;2.25;;;;;;;;5069423;28;47070;-77
2021/08/28 14:30:30;;;;;;;;;1.50;1.00;;;;;;;;5079038;28;46891;-77
2021/08/28 14:32:55;;;;;;;;;1.00;1.00;;;;;;;;5078941;28;46960;-77
2021/08/28 14:35:20;;;;;;;;;1.00;1.00;;;;;;;;5078786;28;47722;-77
2021/08/28 14:37:46;;;;;;;;;3.00;2.00;;;;;;;;5079024;28;47140;-77
2021/08/28 14:40:11;;;;;;;;;1.75;1.00;;;;;;;;5078783;28;47159;-77